createdAt,value
2023-04-14T00:00:10.418Z,2.10
2023-04-14T00:01:45.645Z,2.35
2023-04-14T00:03:18.348Z,3.97
2023-04-14T00:04:54.012Z,2.63
2023-04-14T00:06:27.491Z,1.73
2023-04-14T00:07:59.814Z,2.22
2023-04-14T00:09:31.630Z,3.13
2023-04-14T00:11:03.479Z,3.00
2023-04-14T00:12:35.295Z,2.13
2023-04-14T00:14:07.330Z,2.90
2023-04-14T00:15:41.662Z,2.63
2023-04-14T00:17:13.577Z,3.15
2023-04-14T00:18:45.683Z,2.35
2023-04-14T00:20:17.542Z,2.53
2023-04-14T00:21:49.352Z,2.00
2023-04-14T00:23:21.377Z,2.08
2023-04-14T00:24:53.432Z,2.10
2023-04-14T00:26:25.488Z,2.38
2023-04-14T00:27:57.552Z,2.13
2023-04-14T00:29:29.344Z,2.63
2023-04-14T00:31:01.174Z,4.05
2023-04-14T00:32:33.161Z,1.63
2023-04-14T00:34:05.443Z,2.83
2023-04-14T00:35:37.440Z,2.85
2023-04-14T00:37:09.247Z,2.60
2023-04-14T00:38:41.104Z,2.78
2023-04-14T00:40:13.547Z,4.03
2023-04-14T00:41:45.417Z,2.67
2023-04-14T00:43:20.691Z,2.58
2023-04-14T00:44:52.650Z,3.55
2023-04-14T00:46:24.661Z,3.22
2023-04-14T00:47:58.533Z,3.72
2023-04-14T00:49:30.641Z,2.72
2023-04-14T00:51:03.281Z,3.38
2023-04-14T00:52:37.356Z,3.30
2023-04-14T00:54:10.574Z,2.50
2023-04-14T00:55:43.148Z,2.58
2023-04-14T00:57:14.985Z,2.95
2023-04-14T00:58:47.068Z,2.90
2023-04-14T01:00:19.880Z,3.35
2023-04-14T01:01:51.898Z,2.35
2023-04-14T01:03:26.563Z,2.30
2023-04-14T01:04:58.886Z,1.67
2023-04-14T01:06:31.035Z,2.90
2023-04-14T01:08:04.146Z,2.22
2023-04-14T01:09:36.491Z,2.53
2023-04-14T01:11:21.876Z,3.55
2023-04-14T01:13:06.416Z,2.25
2023-04-14T01:14:54.743Z,3.38
2023-04-14T01:16:33.936Z,2.80
2023-04-14T01:19:05.636Z,3.38
2023-04-14T01:20:48.980Z,2.78
2023-04-14T01:22:25.486Z,1.67
2023-04-14T01:24:11.923Z,3.28
2023-04-14T01:26:23.760Z,2.80
2023-04-14T01:28:19.029Z,2.72
2023-04-14T01:30:10.598Z,2.85
2023-04-14T01:32:01.244Z,2.88
2023-04-14T01:33:36.939Z,3.07
2023-04-14T01:35:13.525Z,3.50
2023-04-14T01:36:56.951Z,3.70
2023-04-14T01:38:33.579Z,2.53
2023-04-14T01:40:12.828Z,3.00
2023-04-14T01:41:49.748Z,3.08
2023-04-14T01:43:30.891Z,3.10
2023-04-14T01:45:17.014Z,2.97
2023-04-14T01:46:52.426Z,4.22
2023-04-14T01:48:26.539Z,3.47
2023-04-14T01:50:01.184Z,2.45
2023-04-14T01:51:34.779Z,2.83
2023-04-14T01:53:09.119Z,3.45
2023-04-14T01:54:43.564Z,3.63
2023-04-14T01:56:18.115Z,3.40
2023-04-14T01:57:52.820Z,2.75
2023-04-14T01:59:26.293Z,2.72
2023-04-14T02:00:59.056Z,2.83
2023-04-14T02:02:33.327Z,1.42
2023-04-14T02:05:42.517Z,3.13
2023-04-14T02:07:15.253Z,3.50
2023-04-14T02:08:47.825Z,1.75
2023-04-14T02:10:21.093Z,2.25
2023-04-14T02:11:54.754Z,3.90
2023-04-14T02:13:28.771Z,3.00
2023-04-14T02:15:02.564Z,2.95
2023-04-14T02:16:36.422Z,2.55
2023-04-14T02:18:08.953Z,3.60
2023-04-14T02:19:44.175Z,2.97
2023-04-14T02:21:18.596Z,2.05
2023-04-14T02:22:50.471Z,4.32
2023-04-14T02:24:23.186Z,2.38
2023-04-14T02:26:05.025Z,5.00
2023-04-14T02:27:45.585Z,2.53
2023-04-14T02:29:21.932Z,2.65
2023-04-14T02:30:56.384Z,3.45
2023-04-14T02:32:30.150Z,2.83
2023-04-14T02:34:06.332Z,3.30
2023-04-14T02:35:46.341Z,3.70
2023-04-14T02:37:23.221Z,3.92
2023-04-14T02:39:06.804Z,2.78
2023-04-14T02:40:42.133Z,2.80
2023-04-14T02:42:16.158Z,1.58
2023-04-14T02:43:55.859Z,2.80
2023-04-14T02:45:30.882Z,2.97
2023-04-14T02:47:09.727Z,2.80
2023-04-14T02:48:47.696Z,4.28
2023-04-14T02:50:22.258Z,2.05
2023-04-14T02:52:11.983Z,3.42
2023-04-14T02:53:44.484Z,2.38
2023-04-14T02:55:24.569Z,2.80
2023-04-14T02:56:59.246Z,3.55
2023-04-14T02:58:32.435Z,3.00
2023-04-14T03:00:06.341Z,3.35
2023-04-14T03:01:44.367Z,1.70
2023-04-14T03:03:17.229Z,3.47
2023-04-14T03:04:50.069Z,3.25
2023-04-14T03:06:31.805Z,3.70
2023-04-14T03:08:05.220Z,4.60
2023-04-14T03:09:37.551Z,2.85
2023-04-14T03:11:11.787Z,3.75
2023-04-14T03:12:45.702Z,5.95
2023-04-14T03:14:19.285Z,2.42
2023-04-14T03:15:53.151Z,3.95
2023-04-14T03:17:27.635Z,2.40
2023-04-14T03:19:00.353Z,2.33
2023-04-14T03:20:33.604Z,4.43
2023-04-14T03:22:06.842Z,2.65
2023-04-14T03:23:39.823Z,3.38
2023-04-14T03:25:13.542Z,3.28
2023-04-14T03:26:49.773Z,2.60
2023-04-14T03:28:25.093Z,2.00
2023-04-14T03:30:03.726Z,2.38
2023-04-14T03:31:38.384Z,2.60
2023-04-14T03:33:14.683Z,2.65
2023-04-14T03:34:54.333Z,2.33
2023-04-14T03:36:29.273Z,2.75
2023-04-14T03:38:06.318Z,2.83
2023-04-14T03:39:39.814Z,3.35
2023-04-14T03:41:14.841Z,4.40
2023-04-14T03:42:48.654Z,3.58
2023-04-14T03:44:26.488Z,3.72
2023-04-14T03:45:58.694Z,2.10
2023-04-14T03:47:32.726Z,1.95
2023-04-14T03:49:11.257Z,3.05
2023-04-14T03:50:45.930Z,2.67
2023-04-14T03:52:21.090Z,3.08
2023-04-14T03:53:56.889Z,3.42
2023-04-14T03:55:32.188Z,3.50
2023-04-14T03:57:08.942Z,3.45
2023-04-14T03:58:47.430Z,3.10
2023-04-14T04:00:21.603Z,2.85
2023-04-14T04:01:55.598Z,2.70
2023-04-14T04:03:29.673Z,3.47
2023-04-14T04:05:03.535Z,3.10
2023-04-14T04:06:37.309Z,3.25
2023-04-14T04:08:10.252Z,3.15
2023-04-14T04:09:43.551Z,4.30
2023-04-14T04:11:19.112Z,4.32
2023-04-14T04:12:53.416Z,2.65
2023-04-14T04:14:28.596Z,2.85
2023-04-14T04:16:00.809Z,3.53
2023-04-14T04:17:33.311Z,3.67
2023-04-14T04:19:07.374Z,3.55
2023-04-14T04:20:41.393Z,4.10
2023-04-14T04:22:17.603Z,4.63
2023-04-14T04:23:53.573Z,2.70
2023-04-14T04:25:25.943Z,2.72
2023-04-14T04:27:24.230Z,3.63
2023-04-14T04:29:00.925Z,4.97
2023-04-14T04:30:34.395Z,3.50
2023-04-14T04:32:07.153Z,5.35
2023-04-14T04:33:39.096Z,3.15
2023-04-14T04:35:12.101Z,5.28
2023-04-14T04:36:46.382Z,3.90
2023-04-14T04:38:18.226Z,4.05
2023-04-14T04:39:51.733Z,4.10
2023-04-14T04:41:28.231Z,3.42
2023-04-14T04:43:01.365Z,3.03
2023-04-14T04:44:34.526Z,3.42
2023-04-14T04:46:24.852Z,3.63
2023-04-14T04:47:56.825Z,3.10
2023-04-14T04:49:28.864Z,3.05
2023-04-14T04:51:06.344Z,4.20
2023-04-14T04:52:38.248Z,4.07
2023-04-14T04:54:10.253Z,5.70
2023-04-14T04:55:42.586Z,4.82
2023-04-14T04:57:14.407Z,5.45
2023-04-14T04:58:47.088Z,6.35
2023-04-14T05:00:19.298Z,3.58
2023-04-14T05:01:51.503Z,4.82
2023-04-14T05:03:23.572Z,4.30
2023-04-14T05:04:55.519Z,4.95
2023-04-14T05:06:28.358Z,4.45
2023-04-14T05:08:00.139Z,5.68
2023-04-14T05:09:31.946Z,3.50
2023-04-14T05:11:04.470Z,4.53
2023-04-14T05:12:36.298Z,4.07
2023-04-14T05:14:08.116Z,3.15
2023-04-14T05:15:39.982Z,2.85
2023-04-14T05:17:11.777Z,3.80
2023-04-14T05:18:43.543Z,3.33
2023-04-14T05:20:15.743Z,4.88
2023-04-14T05:21:47.514Z,3.97
2023-04-14T05:23:19.297Z,3.80
2023-04-14T05:24:53.543Z,3.53
2023-04-14T05:28:00.241Z,3.90
2023-04-14T05:29:32.022Z,3.92
2023-04-14T05:31:03.848Z,4.00
2023-04-14T05:32:35.917Z,4.68
2023-04-14T05:34:07.727Z,4.32
2023-04-14T05:35:39.532Z,3.92
2023-04-14T05:37:11.629Z,3.95
2023-04-14T05:38:43.543Z,3.72
2023-04-14T05:40:15.709Z,4.78
2023-04-14T05:41:47.528Z,5.20
2023-04-14T05:43:19.395Z,3.78
2023-04-14T05:44:51.190Z,3.55
2023-04-14T05:46:22.984Z,3.50
2023-04-14T05:47:55.075Z,4.15
2023-04-14T05:49:27.396Z,3.45
2023-04-14T05:50:59.237Z,4.68
2023-04-14T05:52:31.042Z,4.40
2023-04-14T05:54:03.098Z,4.47
2023-04-14T05:55:35.178Z,4.22
2023-04-14T05:57:06.967Z,3.80
2023-04-14T05:58:38.769Z,3.88
2023-04-14T06:00:12.538Z,4.00
2023-04-14T06:01:47.237Z,3.60
2023-04-14T06:03:19.362Z,4.82
2023-04-14T06:04:51.477Z,4.20
2023-04-14T06:06:23.346Z,6.47
2023-04-14T06:07:55.141Z,4.95
2023-04-14T06:09:26.969Z,5.78
2023-04-14T06:10:58.744Z,5.72
2023-04-14T06:12:30.582Z,5.22
2023-04-14T06:14:03.154Z,4.93
2023-04-14T06:15:35.079Z,5.10
2023-04-14T06:17:06.893Z,4.00
2023-04-14T06:18:38.776Z,4.53
2023-04-14T06:20:11.111Z,4.03
2023-04-14T06:21:42.924Z,4.38
2023-04-14T06:23:14.844Z,4.28
2023-04-14T06:24:46.988Z,3.85
2023-04-14T06:26:18.835Z,3.75
2023-04-14T06:27:50.623Z,3.83
2023-04-14T06:29:22.461Z,6.22
2023-04-14T06:30:54.265Z,3.83
2023-04-14T06:32:26.081Z,5.20
2023-04-14T06:33:57.985Z,3.45
2023-04-14T06:35:33.608Z,4.80
2023-04-14T06:37:06.924Z,3.67
2023-04-14T06:38:38.773Z,3.60
2023-04-14T06:40:10.950Z,4.47
2023-04-14T06:41:44.181Z,4.50
2023-04-14T06:43:18.425Z,3.88
2023-04-14T06:44:50.251Z,4.25
2023-04-14T06:46:22.154Z,4.75
2023-04-14T06:47:54.186Z,4.10
2023-04-14T06:49:26.501Z,4.10
2023-04-14T06:50:58.417Z,4.18
2023-04-14T06:52:30.232Z,4.28
2023-04-14T06:54:02.354Z,4.57
2023-04-14T06:55:35.763Z,4.00
2023-04-14T06:57:07.558Z,4.85
2023-04-14T06:58:40.426Z,4.43
2023-04-14T07:02:21.460Z,3.92
2023-04-14T07:04:14.229Z,4.20
2023-04-14T07:05:46.128Z,4.80
2023-04-14T07:07:18.381Z,5.13
2023-04-14T07:08:50.225Z,4.20
2023-04-14T07:10:22.047Z,4.30
2023-04-14T07:11:53.911Z,5.50
2023-04-14T07:13:25.742Z,4.85
2023-04-14T07:14:57.749Z,6.28
2023-04-14T07:16:29.642Z,4.65
2023-04-14T07:18:01.546Z,3.90
2023-04-14T07:19:33.386Z,4.65
2023-04-14T07:21:05.229Z,4.70
2023-04-14T07:22:37.103Z,4.60
2023-04-14T07:24:09.658Z,6.03
2023-04-14T07:25:41.538Z,4.68
2023-04-14T07:27:15.795Z,3.97
2023-04-14T07:28:47.796Z,4.80
2023-04-14T07:30:19.635Z,4.30
2023-04-14T07:31:51.530Z,4.75
2023-04-14T07:33:23.854Z,4.72
2023-04-14T07:34:57.185Z,4.75
2023-04-14T07:36:31.372Z,5.97
2023-04-14T07:38:03.265Z,5.10
2023-04-14T07:39:35.682Z,4.50
2023-04-14T07:41:07.646Z,5.18
2023-04-14T07:42:39.482Z,5.25
2023-04-14T07:44:11.404Z,3.50
2023-04-14T07:45:43.540Z,3.97
2023-04-14T07:47:15.413Z,3.63
2023-04-14T07:48:47.414Z,4.57
2023-04-14T07:50:19.885Z,3.85
2023-04-14T07:51:51.880Z,5.72
2023-04-14T07:53:24.000Z,4.90
2023-04-14T07:54:56.026Z,4.00
2023-04-14T07:56:27.829Z,4.53
2023-04-14T07:57:59.695Z,4.72
2023-04-14T07:59:32.083Z,5.50
2023-04-14T08:01:07.935Z,5.93
2023-04-14T08:02:40.021Z,3.65
2023-04-14T08:04:12.692Z,3.67
2023-04-14T08:05:44.890Z,3.80
2023-04-14T08:07:16.777Z,4.07
2023-04-14T08:08:48.633Z,4.57
2023-04-14T08:10:20.542Z,4.68
2023-04-14T08:11:52.368Z,4.82
2023-04-14T08:13:24.223Z,5.00
2023-04-14T08:14:59.209Z,3.50
2023-04-14T08:16:31.156Z,4.28
2023-04-14T08:18:03.226Z,4.28
2023-04-14T08:19:35.071Z,5.97
2023-04-14T08:21:06.992Z,5.00
2023-04-14T08:22:38.912Z,4.60
2023-04-14T08:24:10.765Z,4.18
2023-04-14T08:25:43.077Z,3.78
2023-04-14T08:27:14.883Z,4.00
2023-04-14T08:28:47.201Z,5.20
2023-04-14T08:30:19.002Z,3.83
2023-04-14T08:31:51.158Z,4.05
2023-04-14T08:33:23.022Z,5.05
2023-04-14T08:35:39.768Z,5.35
2023-04-14T08:36:51.291Z,3.83
2023-04-14T08:38:24.308Z,3.63
2023-04-14T08:39:56.717Z,3.85
2023-04-14T08:41:33.037Z,4.43
2023-04-14T08:43:05.896Z,4.05
2023-04-14T08:44:38.075Z,5.80
2023-04-14T08:46:11.813Z,4.47
2023-04-14T08:47:46.239Z,4.32
2023-04-14T08:49:40.668Z,3.30
2023-04-14T08:51:32.220Z,4.53
2023-04-14T08:53:10.323Z,3.45
2023-04-14T08:54:42.756Z,3.60
2023-04-14T08:56:18.333Z,3.88
2023-04-14T08:57:50.943Z,3.60
2023-04-14T08:59:22.942Z,4.70
2023-04-14T09:00:55.963Z,3.00
2023-04-14T09:02:28.145Z,5.07
2023-04-14T09:04:02.013Z,3.58
2023-04-14T09:05:34.144Z,3.65
2023-04-14T09:07:05.943Z,3.47
2023-04-14T09:08:38.196Z,3.53
2023-04-14T09:10:11.324Z,2.72
2023-04-14T09:11:43.548Z,3.42
2023-04-14T09:13:17.037Z,3.47
2023-04-14T09:14:50.933Z,3.42
2023-04-14T09:16:23.251Z,2.65
2023-04-14T09:17:55.767Z,2.65
2023-04-14T09:19:28.954Z,3.25
2023-04-14T09:21:33.010Z,3.50
2023-04-14T09:22:53.355Z,3.42
2023-04-14T09:24:32.501Z,3.15
2023-04-14T09:26:09.423Z,3.03
2023-04-14T09:27:41.500Z,2.88
2023-04-14T09:29:13.399Z,3.00
2023-04-14T09:30:45.324Z,2.92
2023-04-14T09:32:17.379Z,5.03
2023-04-14T09:33:53.007Z,2.70
2023-04-14T09:35:43.627Z,3.30
2023-04-14T09:37:16.473Z,4.72
2023-04-14T09:38:50.180Z,2.75
2023-04-14T09:40:29.317Z,2.60
2023-04-14T09:42:02.341Z,3.28
2023-04-14T09:43:34.482Z,2.10
2023-04-14T09:45:07.004Z,2.47
2023-04-14T09:47:05.892Z,2.97
2023-04-14T09:48:58.052Z,2.03
2023-04-14T09:50:29.954Z,1.83
2023-04-14T09:52:07.632Z,2.13
2023-04-14T09:53:40.700Z,2.47
2023-04-14T09:55:15.349Z,2.50
2023-04-14T09:56:47.278Z,3.80
2023-04-14T09:58:24.627Z,5.38
2023-04-14T09:59:58.070Z,3.03
2023-04-14T10:01:34.582Z,2.33
2023-04-14T10:03:06.754Z,3.13
2023-04-14T10:04:38.698Z,2.92
2023-04-14T10:06:19.770Z,3.95
2023-04-14T10:07:51.636Z,2.30
2023-04-14T10:09:26.514Z,3.00
2023-04-14T10:11:13.594Z,3.05
2023-04-14T10:12:46.188Z,2.20
2023-04-14T10:14:18.431Z,2.22
2023-04-14T10:15:50.325Z,2.97
2023-04-14T10:17:22.203Z,2.50
2023-04-14T10:18:55.194Z,2.88
2023-04-14T10:20:27.231Z,2.88
2023-04-14T10:21:59.670Z,2.53
2023-04-14T10:23:32.498Z,2.20
2023-04-14T10:25:05.390Z,2.85
2023-04-14T10:26:37.227Z,1.85
2023-04-14T10:28:09.083Z,3.85
2023-04-14T10:29:42.297Z,1.55
2023-04-14T10:31:22.421Z,4.18
2023-04-14T10:32:54.573Z,2.60
2023-04-14T10:34:27.217Z,3.55
2023-04-14T10:36:03.356Z,3.40
2023-04-14T10:37:35.923Z,3.40
2023-04-14T10:39:08.409Z,1.90
2023-04-14T10:40:47.259Z,3.80
2023-04-14T10:42:19.164Z,2.50
2023-04-14T10:43:51.185Z,1.92
2023-04-14T10:45:23.436Z,2.15
2023-04-14T10:47:02.396Z,1.98
2023-04-14T10:48:36.595Z,1.83
2023-04-14T10:50:13.759Z,1.63
2023-04-14T10:51:49.791Z,1.50
2023-04-14T10:53:25.049Z,2.50
2023-04-14T10:55:07.766Z,1.13
2023-04-14T10:56:39.630Z,4.00
2023-04-14T10:58:20.266Z,1.50
2023-04-14T10:59:59.404Z,1.75
2023-04-14T11:01:32.837Z,1.80
2023-04-14T11:03:11.317Z,1.13
2023-04-14T11:05:05.333Z,1.40
2023-04-14T11:06:46.991Z,1.80
2023-04-14T11:08:27.292Z,1.33
2023-04-14T11:10:20.715Z,2.72
2023-04-14T11:11:54.892Z,2.15
2023-04-14T11:13:27.097Z,1.55
2023-04-14T11:15:05.302Z,3.03
2023-04-14T11:16:44.621Z,1.65
2023-04-14T11:18:37.971Z,2.67
2023-04-14T11:20:17.900Z,1.60
2023-04-14T11:21:51.264Z,1.23
2023-04-14T11:23:28.155Z,1.90
2023-04-14T11:25:00.298Z,1.42
2023-04-14T11:26:32.232Z,1.50
2023-04-14T11:28:04.933Z,1.70
2023-04-14T11:29:36.737Z,6.07
2023-04-14T11:31:16.083Z,2.47
2023-04-14T11:32:52.674Z,1.60
2023-04-14T11:34:26.238Z,1.55
2023-04-14T11:35:59.145Z,1.63
2023-04-14T11:37:31.403Z,2.17
2023-04-14T11:39:04.354Z,1.30
2023-04-14T11:40:36.851Z,1.90
2023-04-14T11:42:08.696Z,1.55
2023-04-14T11:43:47.023Z,1.55
2023-04-14T11:45:19.185Z,1.67
2023-04-14T11:46:51.008Z,2.10
2023-04-14T11:48:23.127Z,2.65
2023-04-14T11:49:54.975Z,2.00
2023-04-14T11:51:32.735Z,1.65
2023-04-14T11:53:13.818Z,1.95
2023-04-14T11:54:45.902Z,2.28
2023-04-14T11:56:18.688Z,3.38
2023-04-14T11:57:50.671Z,2.30
2023-04-14T11:59:22.499Z,2.70
2023-04-14T12:00:57.703Z,2.33
2023-04-14T12:02:29.751Z,2.30
2023-04-14T12:04:03.171Z,2.45
2023-04-14T12:05:35.733Z,3.05
2023-04-14T12:07:15.105Z,2.30
2023-04-14T12:08:52.593Z,3.67
2023-04-14T12:10:25.186Z,2.30
2023-04-14T12:11:57.513Z,2.08
2023-04-14T12:13:29.443Z,2.20
2023-04-14T12:15:02.187Z,3.15
2023-04-14T12:16:34.406Z,2.72
2023-04-14T12:18:09.266Z,2.70
2023-04-14T12:19:42.469Z,2.10
2023-04-14T12:21:20.562Z,2.58
2023-04-14T12:22:52.400Z,2.92
2023-04-14T12:24:24.260Z,2.00
2023-04-14T12:25:56.296Z,2.25
2023-04-14T12:27:28.697Z,1.77
2023-04-14T12:29:00.773Z,2.35
2023-04-14T12:30:33.875Z,2.13
2023-04-14T12:32:12.313Z,2.13
2023-04-14T12:33:44.404Z,1.92
2023-04-14T12:35:16.327Z,1.70
2023-04-14T12:36:52.554Z,1.88
2023-04-14T12:38:28.469Z,1.70
2023-04-14T12:40:01.822Z,1.83
2023-04-14T12:41:33.804Z,2.25
2023-04-14T12:43:05.715Z,2.63
2023-04-14T12:44:37.516Z,3.13
2023-04-14T12:46:10.101Z,2.35
2023-04-14T12:47:53.140Z,1.77
2023-04-14T12:49:32.754Z,2.00
2023-04-14T12:51:15.789Z,1.92
2023-04-14T12:52:47.803Z,1.98
2023-04-14T12:54:20.531Z,2.63
2023-04-14T12:56:07.707Z,2.15
2023-04-14T12:57:40.050Z,2.13
2023-04-14T12:59:11.986Z,2.22
2023-04-14T13:00:43.885Z,2.28
2023-04-14T13:02:15.844Z,1.80
2023-04-14T13:03:55.965Z,1.73
2023-04-14T13:05:28.115Z,1.63
2023-04-14T13:06:59.949Z,2.22
2023-04-14T13:08:32.031Z,2.55
2023-04-14T13:10:04.132Z,1.95
2023-04-14T13:11:36.032Z,1.58
2023-04-14T13:13:07.858Z,2.03
2023-04-14T13:14:39.898Z,2.33
2023-04-14T13:16:16.986Z,2.63
2023-04-14T13:17:49.898Z,2.45
2023-04-14T13:19:21.708Z,2.88
2023-04-14T13:20:55.693Z,2.08
2023-04-14T13:22:27.583Z,1.80
2023-04-14T13:23:59.379Z,1.88
2023-04-14T13:25:31.417Z,1.70
2023-04-14T13:27:03.392Z,2.13
2023-04-14T13:28:35.297Z,1.58
2023-04-14T13:30:07.853Z,1.48
2023-04-14T13:31:40.430Z,2.20
2023-04-14T13:33:13.398Z,2.05
2023-04-14T13:34:46.436Z,1.65
2023-04-14T13:36:18.276Z,1.92
2023-04-14T13:37:50.175Z,2.10
2023-04-14T13:39:22.925Z,1.77
2023-04-14T13:40:54.901Z,2.38
2023-04-14T13:42:26.893Z,1.83
2023-04-14T13:43:58.848Z,1.60
2023-04-14T13:45:31.123Z,1.70
2023-04-14T13:47:03.083Z,1.70
2023-04-14T13:48:34.900Z,1.80
2023-04-14T13:50:07.632Z,1.60
2023-04-14T13:51:39.887Z,1.80
2023-04-14T13:53:12.520Z,2.63
2023-04-14T13:54:44.339Z,1.88
2023-04-14T13:56:16.177Z,2.08
2023-04-14T13:57:48.019Z,1.75
2023-04-14T13:59:19.851Z,2.33
2023-04-14T14:00:51.805Z,2.45
2023-04-14T14:02:24.176Z,2.63
2023-04-14T14:03:56.673Z,1.65
2023-04-14T14:05:29.012Z,2.20
2023-04-14T14:07:01.382Z,2.20
2023-04-14T14:08:37.859Z,2.53
2023-04-14T14:10:10.986Z,1.90
2023-04-14T14:11:44.585Z,2.00
2023-04-14T14:13:18.039Z,1.80
2023-04-14T14:14:50.416Z,1.88
2023-04-14T14:16:36.037Z,2.22
2023-04-14T14:18:08.897Z,1.80
2023-04-14T14:19:40.791Z,2.63
2023-04-14T14:21:12.645Z,3.00
2023-04-14T14:22:44.545Z,1.95
2023-04-14T14:24:16.372Z,2.08
2023-04-14T14:25:48.461Z,2.15
2023-04-14T14:27:20.310Z,2.00
2023-04-14T14:28:52.186Z,1.98
2023-04-14T14:30:24.122Z,1.90
2023-04-14T14:31:56.052Z,2.33
2023-04-14T14:33:27.944Z,2.03
2023-04-14T14:34:59.832Z,2.22
2023-04-14T14:36:31.700Z,1.70
2023-04-14T14:38:03.529Z,2.38
2023-04-14T14:39:35.411Z,2.40
2023-04-14T14:41:07.215Z,1.90
2023-04-14T14:42:39.051Z,1.92
2023-04-14T14:44:10.977Z,2.40
2023-04-14T14:45:42.842Z,1.73
2023-04-14T14:47:14.863Z,2.58
2023-04-14T14:48:46.904Z,1.90
2023-04-14T14:50:18.829Z,1.67
2023-04-14T14:51:50.923Z,1.63
2023-04-14T14:53:22.712Z,1.95
2023-04-14T14:54:54.863Z,1.92
2023-04-14T14:56:27.848Z,1.92
2023-04-14T14:57:59.706Z,2.00
2023-04-14T14:59:31.506Z,1.67
2023-04-14T15:01:06.107Z,2.63
2023-04-14T15:02:39.026Z,1.75
2023-04-14T15:04:12.396Z,2.10
2023-04-14T15:05:44.227Z,1.80
2023-04-14T15:07:16.097Z,1.80
2023-04-14T15:08:49.293Z,2.28
2023-04-14T15:10:21.097Z,2.03
2023-04-14T15:11:52.912Z,1.80
2023-04-14T15:13:24.769Z,2.00
2023-04-14T15:14:57.030Z,1.85
2023-04-14T15:16:29.077Z,1.80
2023-04-14T15:18:01.178Z,1.70
2023-04-14T15:19:33.167Z,2.00
2023-04-14T15:21:05.413Z,2.05
2023-04-14T15:22:37.291Z,2.10
2023-04-14T15:24:09.196Z,1.80
2023-04-14T15:25:41.095Z,2.28
2023-04-14T15:27:12.892Z,1.70
2023-04-14T15:28:45.558Z,1.85
2023-04-14T15:30:17.427Z,1.80
2023-04-14T15:31:49.256Z,2.47
2023-04-14T15:33:21.306Z,1.98
2023-04-14T15:34:56.380Z,2.28
2023-04-14T15:36:28.882Z,1.85
2023-04-14T15:38:00.740Z,2.47
2023-04-14T15:39:32.680Z,1.88
2023-04-14T15:41:05.566Z,2.33
2023-04-14T15:42:38.194Z,2.38
2023-04-14T15:44:10.084Z,2.35
2023-04-14T15:45:42.447Z,1.63
2023-04-14T15:47:14.742Z,2.40
2023-04-14T15:48:46.550Z,1.92
2023-04-14T15:50:19.120Z,2.65
2023-04-14T15:51:51.046Z,2.53
2023-04-14T15:53:22.860Z,2.30
2023-04-14T15:54:54.641Z,2.60
2023-04-14T15:56:27.286Z,2.28
2023-04-14T15:57:59.401Z,2.55
2023-04-14T15:59:31.281Z,2.60
2023-04-14T16:01:09.377Z,2.40
2023-04-14T16:02:42.426Z,2.17
2023-04-14T16:04:14.691Z,2.40
2023-04-14T16:05:46.568Z,2.80
2023-04-14T16:07:18.384Z,2.25
2023-04-14T16:08:50.218Z,2.55
2023-04-14T16:10:22.065Z,3.03
2023-04-14T16:11:53.923Z,2.35
2023-04-14T16:13:25.995Z,2.75
2023-04-14T16:14:58.916Z,2.30
2023-04-14T16:16:32.829Z,2.90
2023-04-14T16:18:04.639Z,2.60
2023-04-14T16:19:36.403Z,2.05
2023-04-14T16:21:08.524Z,2.38
2023-04-14T16:22:40.577Z,2.70
2023-04-14T16:24:12.374Z,2.45
2023-04-14T16:25:48.896Z,2.40
2023-04-14T16:27:20.775Z,2.58
2023-04-14T16:28:52.785Z,2.63
2023-04-14T16:30:24.585Z,2.50
2023-04-14T16:31:56.412Z,2.60
2023-04-14T16:33:28.976Z,2.42
2023-04-14T16:35:01.330Z,2.97
2023-04-14T16:36:33.539Z,2.90
2023-04-14T16:38:08.795Z,2.95
2023-04-14T16:39:41.478Z,3.15
2023-04-14T16:41:13.244Z,2.67
2023-04-14T16:42:45.099Z,3.03
2023-04-14T16:44:16.919Z,3.00
2023-04-14T16:45:48.761Z,2.45
2023-04-14T16:47:21.439Z,3.20
2023-04-14T16:48:53.205Z,2.38
2023-04-14T16:50:25.019Z,2.45
2023-04-14T16:51:57.804Z,2.33
2023-04-14T16:53:29.902Z,2.38
2023-04-14T16:55:02.132Z,2.92
2023-04-14T16:56:36.866Z,2.50
2023-04-14T16:58:10.058Z,2.42
2023-04-14T16:59:42.049Z,2.13
2023-04-14T17:01:13.862Z,2.60
2023-04-14T17:02:46.096Z,3.17
2023-04-14T17:04:18.284Z,2.30
2023-04-14T17:05:50.609Z,2.70
2023-04-14T17:07:22.417Z,2.67
2023-04-14T17:08:54.230Z,2.70
2023-04-14T17:10:26.511Z,2.42
2023-04-14T17:11:58.950Z,2.30
2023-04-14T17:13:30.896Z,2.35
2023-04-14T17:15:03.873Z,2.13
2023-04-14T17:16:35.863Z,2.53
2023-04-14T17:18:07.706Z,2.25
2023-04-14T17:19:39.514Z,2.50
2023-04-14T17:21:11.325Z,2.10
2023-04-14T17:22:43.397Z,1.80
2023-04-14T17:24:15.203Z,2.40
2023-04-14T17:25:48.559Z,2.35
2023-04-14T17:27:20.463Z,2.95
2023-04-14T17:28:52.673Z,2.95
2023-04-14T17:30:24.770Z,2.45
2023-04-14T17:31:56.705Z,2.60
2023-04-14T17:33:28.598Z,2.17
2023-04-14T17:35:00.823Z,3.42
2023-04-14T17:36:32.620Z,2.40
2023-04-14T17:38:04.444Z,2.70
2023-04-14T17:39:36.354Z,2.60
2023-04-14T17:41:09.954Z,2.47
2023-04-14T17:42:42.736Z,2.33
2023-04-14T17:44:14.722Z,2.55
2023-04-14T17:45:50.647Z,2.70
2023-04-14T17:47:23.131Z,2.83
2023-04-14T17:48:55.205Z,3.05
2023-04-14T17:50:27.566Z,2.70
2023-04-14T17:51:59.736Z,2.47
2023-04-14T17:53:31.764Z,2.47
2023-04-14T17:55:04.593Z,2.53
2023-04-14T17:56:36.394Z,2.50
2023-04-14T17:58:10.251Z,2.63
2023-04-14T17:59:43.059Z,2.33
2023-04-14T18:01:14.991Z,2.40
2023-04-14T18:02:47.150Z,2.80
2023-04-14T18:04:21.850Z,2.95
2023-04-14T18:05:54.119Z,3.17
2023-04-14T18:07:26.595Z,2.72
2023-04-14T18:08:58.375Z,2.92
2023-04-14T18:10:30.169Z,2.67
2023-04-14T18:12:02.876Z,2.40
2023-04-14T18:13:34.829Z,2.70
2023-04-14T18:15:07.359Z,2.72
2023-04-14T18:16:39.219Z,2.90
2023-04-14T18:18:11.786Z,2.70
2023-04-14T18:19:43.624Z,3.00
2023-04-14T18:21:15.929Z,3.10
2023-04-14T18:22:47.792Z,3.40
2023-04-14T18:29:12.264Z,2.65
2023-04-14T18:30:44.046Z,2.67
2023-04-14T18:32:15.967Z,2.63
2023-04-14T18:33:48.072Z,2.53
2023-04-14T18:35:19.868Z,2.50
2023-04-14T18:36:52.616Z,2.78
2023-04-14T18:38:25.186Z,2.70
2023-04-14T18:39:57.095Z,2.35
2023-04-14T18:41:28.959Z,2.80
2023-04-14T18:43:01.716Z,2.97
2023-04-14T18:44:33.840Z,2.83
2023-04-14T18:46:05.674Z,2.30
2023-04-14T18:47:37.502Z,2.35
2023-04-14T18:49:09.294Z,2.88
2023-04-14T18:50:42.434Z,2.40
2023-04-14T18:52:14.419Z,2.70
2023-04-14T18:53:46.897Z,2.20
2023-04-14T18:55:19.684Z,2.60
2023-04-14T18:56:51.486Z,2.40
2023-04-14T18:58:23.947Z,2.35
2023-04-14T18:59:55.817Z,2.40
2023-04-14T19:01:28.812Z,2.92
2023-04-14T19:03:00.933Z,2.58
2023-04-14T19:04:33.007Z,2.30
2023-04-14T19:06:05.258Z,2.65
2023-04-14T19:07:37.029Z,2.35
2023-04-14T19:09:08.820Z,2.40
2023-04-14T19:10:40.769Z,2.50
2023-04-14T19:12:21.729Z,2.00
2023-04-14T19:13:59.789Z,2.70
2023-04-14T19:15:31.602Z,2.65
2023-04-14T19:17:04.132Z,2.72
2023-04-14T19:18:35.926Z,2.80
2023-04-14T19:20:09.202Z,2.40
2023-04-14T19:21:40.966Z,2.70
2023-04-14T19:23:12.740Z,2.70
2023-04-14T19:24:44.532Z,2.60
2023-04-14T19:26:18.162Z,2.63
2023-04-14T19:27:50.007Z,3.00
2023-04-14T19:29:22.304Z,2.60
2023-04-14T19:30:54.614Z,3.00
2023-04-14T19:32:26.473Z,2.78
2023-04-14T19:33:58.841Z,2.60
2023-04-14T19:35:31.074Z,2.78
2023-04-14T19:37:04.185Z,2.72
2023-04-14T19:38:36.522Z,2.70
2023-04-14T19:40:09.011Z,2.55
2023-04-14T19:41:40.782Z,2.55
2023-04-14T19:43:14.607Z,2.67
2023-04-14T19:44:46.902Z,2.60
2023-04-14T19:46:18.960Z,2.65
2023-04-14T19:47:50.812Z,2.20
2023-04-14T19:49:23.012Z,2.67
2023-04-14T19:50:55.397Z,2.53
2023-04-14T19:52:28.432Z,2.75
2023-04-14T19:54:01.605Z,2.60
2023-04-14T19:55:33.767Z,2.28
2023-04-14T19:57:05.611Z,2.35
2023-04-14T19:58:37.425Z,2.40
2023-04-14T20:00:11.713Z,2.30
2023-04-14T20:01:48.735Z,2.25
2023-04-14T20:03:20.763Z,2.53
2023-04-14T20:04:53.295Z,2.50
2023-04-14T20:06:25.423Z,2.20
2023-04-14T20:07:57.537Z,2.30
2023-04-14T20:09:29.356Z,2.20
2023-04-14T20:11:01.757Z,2.58
2023-04-14T20:12:34.356Z,2.80
2023-04-14T20:14:06.187Z,2.45
2023-04-14T20:15:38.015Z,2.30
2023-04-14T20:17:09.923Z,2.63
2023-04-14T20:18:45.412Z,2.30
2023-04-14T20:20:18.112Z,1.88
2023-04-14T20:21:49.961Z,2.13
2023-04-14T20:23:22.068Z,2.05
2023-04-14T20:24:53.913Z,2.28
2023-04-14T20:26:25.749Z,2.30
2023-04-14T20:27:58.288Z,2.28
2023-04-14T20:29:30.835Z,3.00
2023-04-14T20:31:03.531Z,2.25
2023-04-14T20:32:35.858Z,2.10
2023-04-14T20:34:07.764Z,2.05
2023-04-14T20:35:40.515Z,1.83
2023-04-14T20:37:12.355Z,1.92
2023-04-14T20:38:44.171Z,2.10
2023-04-14T20:40:18.393Z,2.47
2023-04-14T20:41:51.111Z,2.80
2023-04-14T20:43:23.333Z,2.47
2023-04-14T20:44:55.149Z,2.40
2023-04-14T20:46:27.104Z,2.35
2023-04-14T20:47:59.037Z,2.05
2023-04-14T20:49:30.835Z,2.47
2023-04-14T20:51:02.645Z,2.70
2023-04-14T20:52:35.528Z,1.90
2023-04-14T20:54:07.428Z,1.67
2023-04-14T20:55:41.292Z,2.08
2023-04-14T20:57:13.129Z,2.55
2023-04-14T20:58:45.772Z,1.77